Time;durP1;ratioP1;P1;durP2;ratioP2;P2;SDS_P1;SDS_P2;PMS_P1;PMS_P2;Temp;Humidity;BMP_temperature;BMP_pressure;BME280_temperature;BME280_humidity;BME280_pressure;Samples;Min_cycle;Max_cycle;Signal;HPM_P1;HPM_P2
2022/07/18 00:01:58;;;;;;;8.70;4.75;;;15.20;99.90;;;;;;5083689;28;20450;-78
2022/07/18 00:04:25;;;;;;;8.52;4.40;;;15.10;99.90;;;;;;5068043;28;20040;-78
2022/07/18 00:06:51;;;;;;;10.57;5.05;;;15.10;99.90;;;;;;5051931;28;20052;-78
2022/07/18 00:09:17;;;;;;;8.52;4.80;;;15.00;99.90;;;;;;5068396;28;20398;-78
2022/07/18 00:11:44;;;;;;;8.80;4.40;;;15.00;99.90;;;;;;5066782;28;20040;-78
2022/07/18 00:14:10;;;;;;;9.40;4.95;;;15.00;99.90;;;;;;5056677;28;20032;-78
2022/07/18 00:16:36;;;;;;;9.70;4.60;;;15.00;99.90;;;;;;5067314;28;20048;-78
2022/07/18 00:19:02;;;;;;;9.18;4.85;;;14.90;99.90;;;;;;5067962;28;20028;-78
2022/07/18 00:21:28;;;;;;;8.00;4.75;;;14.90;99.90;;;;;;5070160;28;20043;-78
2022/07/18 00:23:54;;;;;;;10.75;5.13;;;14.90;99.90;;;;;;5070036;28;20032;-78
2022/07/18 00:26:19;;;;;;;9.60;5.43;;;14.90;99.90;;;;;;5054938;28;20067;-78
2022/07/18 00:28:45;;;;;;;9.18;4.97;;;14.90;99.90;;;;;;5056215;28;20063;-78
2022/07/18 00:31:11;;;;;;;9.70;5.45;;;15.00;99.90;;;;;;5070314;28;20039;-78
2022/07/18 00:33:36;;;;;;;11.32;5.25;;;14.90;99.90;;;;;;5071075;28;20061;-78
2022/07/18 00:36:02;;;;;;;10.60;5.40;;;14.90;99.90;;;;;;5071400;28;20541;-78
2022/07/18 00:38:28;;;;;;;8.60;5.00;;;14.80;99.90;;;;;;5070817;28;20063;-78
2022/07/18 00:40:54;;;;;;;8.90;4.78;;;14.80;99.90;;;;;;5070372;28;20074;-78
2022/07/18 00:43:19;;;;;;;11.18;5.93;;;14.80;99.90;;;;;;5055724;28;20059;-77
2022/07/18 00:45:47;;;;;;;9.80;5.15;;;14.80;99.90;;;;;;5068917;28;20113;-78
2022/07/18 00:48:13;;;;;;;8.80;5.00;;;14.70;99.90;;;;;;5071102;28;20039;-78
2022/07/18 00:50:39;;;;;;;10.15;4.97;;;14.70;99.90;;;;;;5069008;28;20368;-77
2022/07/18 00:53:05;;;;;;;11.00;5.20;;;14.70;99.90;;;;;;5089022;28;20050;-78
2022/07/18 00:55:32;;;;;;;7.32;4.57;;;14.70;99.90;;;;;;5050787;28;20044;-78
2022/07/18 00:57:58;;;;;;;11.82;5.93;;;14.70;99.90;;;;;;5064304;28;20032;-78
2022/07/18 01:03:08;;;;;;;12.65;5.57;;;14.60;99.90;;;;;;5086362;28;20093;-78
2022/07/18 01:05:34;;;;;;;13.18;5.80;;;14.50;99.90;;;;;;5065512;28;20043;-78
2022/07/18 01:08:00;;;;;;;10.73;5.55;;;14.40;99.90;;;;;;5071498;28;20032;-79
2022/07/18 01:10:25;;;;;;;9.85;5.55;;;14.50;99.90;;;;;;5086824;28;20047;-78
2022/07/18 01:12:51;;;;;;;11.85;5.63;;;14.50;99.90;;;;;;5068562;28;20048;-78
2022/07/18 01:15:17;;;;;;;14.00;5.60;;;14.60;99.90;;;;;;5088454;28;20040;-78
2022/07/18 01:17:42;;;;;;;10.02;5.40;;;14.60;99.90;;;;;;5074049;28;20549;-78
2022/07/18 01:20:08;;;;;;;12.57;6.10;;;14.50;99.90;;;;;;5073788;28;20407;-78
2022/07/18 01:22:34;;;;;;;8.95;5.05;;;14.50;99.90;;;;;;5083543;28;20567;-78
2022/07/18 01:25:00;;;;;;;10.13;5.43;;;14.40;99.90;;;;;;5072696;28;20113;-78
2022/07/18 01:27:25;;;;;;;8.82;5.60;;;14.50;99.90;;;;;;5091273;28;20028;-78
2022/07/18 01:29:52;;;;;;;9.98;5.32;;;14.40;99.90;;;;;;5066311;28;20040;-78
2022/07/18 01:32:18;;;;;;;9.07;5.28;;;14.40;99.90;;;;;;5086701;28;20028;-78
2022/07/18 01:34:48;;;;;;;13.43;5.30;;;14.40;99.90;;;;;;5089925;28;20452;-78
2022/07/18 01:37:17;;;;;;;11.82;5.57;;;14.30;99.90;;;;;;5071322;28;20040;-79
2022/07/18 01:39:44;;;;;;;13.45;5.40;;;14.30;99.90;;;;;;5055047;28;20035;-78
2022/07/18 01:42:11;;;;;;;9.63;5.07;;;14.30;99.90;;;;;;5069810;28;20090;-78
2022/07/18 01:44:38;;;;;;;9.23;4.57;;;14.10;99.90;;;;;;5088065;28;20560;-78
2022/07/18 01:47:06;;;;;;;12.00;5.43;;;14.10;99.90;;;;;;5068860;28;20040;-78
2022/07/18 01:49:32;;;;;;;11.57;5.32;;;14.00;99.90;;;;;;5070267;28;20042;-78
2022/07/18 01:51:58;;;;;;;10.95;5.53;;;14.10;99.90;;;;;;5052137;28;20032;-78
2022/07/18 01:54:29;;;;;;;11.00;5.30;;;14.10;99.90;;;;;;5090027;28;20032;-78
2022/07/18 01:56:55;;;;;;;11.02;5.18;;;14.00;99.90;;;;;;5070984;28;20059;-78
2022/07/18 01:59:22;;;;;;;11.60;5.38;;;14.00;99.90;;;;;;5071312;28;20082;-78
2022/07/18 02:01:48;;;;;;;8.23;5.07;;;14.00;99.90;;;;;;5054287;28;20035;-78
2022/07/18 02:04:14;;;;;;;10.93;5.38;;;13.90;99.90;;;;;;5070158;28;20512;-78
2022/07/18 02:06:39;;;;;;;10.40;5.07;;;14.00;99.90;;;;;;5090131;28;20036;-78
2022/07/18 02:09:07;;;;;;;10.90;5.40;;;13.90;99.90;;;;;;5070437;28;20070;-78
2022/07/18 02:11:33;;;;;;;7.82;4.35;;;13.90;99.90;;;;;;5070471;28;20151;-78
2022/07/18 02:13:59;;;;;;;14.10;5.63;;;13.90;99.90;;;;;;5070788;28;21680;-78
2022/07/18 02:16:25;;;;;;;10.63;5.30;;;13.90;99.90;;;;;;5072123;28;20040;-78
2022/07/18 02:18:50;;;;;;;10.30;4.90;;;13.90;99.90;;;;;;5069145;28;20032;-78
2022/07/18 02:21:16;;;;;;;10.40;5.43;;;13.80;99.90;;;;;;5069394;28;20552;-78
2022/07/18 02:23:43;;;;;;;10.73;5.38;;;13.80;99.90;;;;;;5070316;28;20043;-78
2022/07/18 02:26:10;;;;;;;8.98;4.97;;;13.70;99.90;;;;;;5087954;28;20085;-78
2022/07/18 02:28:36;;;;;;;9.13;4.85;;;13.70;99.90;;;;;;5067790;28;20036;-78
2022/07/18 02:31:02;;;;;;;8.68;5.03;;;13.80;99.90;;;;;;5053568;28;20113;-77
2022/07/18 02:33:28;;;;;;;9.43;5.60;;;13.80;99.90;;;;;;5069234;28;20038;-78
2022/07/18 02:35:53;;;;;;;9.43;5.57;;;13.90;99.90;;;;;;5069197;28;20045;-78
2022/07/18 02:38:19;;;;;;;7.47;4.43;;;13.90;99.90;;;;;;5068598;28;20077;-78
2022/07/18 02:40:45;;;;;;;8.20;4.80;;;13.90;99.90;;;;;;5067993;28;20055;-78
2022/07/18 02:43:10;;;;;;;9.20;4.80;;;13.90;99.90;;;;;;5077559;28;20028;-78
2022/07/18 02:45:36;;;;;;;8.68;4.97;;;14.00;99.90;;;;;;5053475;28;20125;-78
2022/07/18 02:48:02;;;;;;;7.68;5.00;;;13.90;99.90;;;;;;5048212;28;20135;-78
2022/07/18 02:50:28;;;;;;;9.23;4.65;;;13.90;99.90;;;;;;5052320;28;20059;-78
2022/07/18 02:52:56;;;;;;;8.57;4.80;;;13.80;99.90;;;;;;5069585;28;20040;-78
2022/07/18 02:55:23;;;;;;;10.75;5.63;;;13.80;99.90;;;;;;5070981;28;20177;-77
2022/07/18 02:57:50;;;;;;;10.98;5.47;;;13.70;99.90;;;;;;5052985;28;20082;-78
2022/07/18 03:00:16;;;;;;;9.85;6.05;;;13.60;99.90;;;;;;5084307;28;20078;-78
2022/07/18 03:02:44;;;;;;;13.07;6.15;;;13.60;99.90;;;;;;5068773;28;20059;-78
2022/07/18 03:05:10;;;;;;;10.38;5.80;;;13.50;99.90;;;;;;5067687;28;20062;-78
2022/07/18 03:07:36;;;;;;;12.35;5.47;;;13.40;99.90;;;;;;5067729;28;20085;-78
2022/07/18 03:10:02;;;;;;;11.82;6.35;;;13.50;99.90;;;;;;5067327;28;20048;-77
2022/07/18 03:12:27;;;;;;;10.93;5.30;;;13.50;99.90;;;;;;5053025;28;20462;-77
2022/07/18 03:14:54;;;;;;;8.63;5.03;;;13.50;99.90;;;;;;5075467;28;20123;-78
2022/07/18 03:17:19;;;;;;;10.65;5.97;;;13.50;99.90;;;;;;5049976;28;20487;-77
2022/07/18 03:19:45;;;;;;;14.68;6.22;;;13.50;99.90;;;;;;5067523;28;20081;-78
2022/07/18 03:22:11;;;;;;;12.10;6.10;;;13.50;99.90;;;;;;5085994;28;20032;-78
2022/07/18 03:24:36;;;;;;;11.95;6.78;;;13.40;99.90;;;;;;5084899;28;20040;-77
2022/07/18 03:27:02;;;;;;;13.00;6.22;;;13.50;99.90;;;;;;5066126;28;20451;-77
2022/07/18 03:29:28;;;;;;;13.57;6.72;;;13.50;99.90;;;;;;5087254;28;20032;-78
2022/07/18 03:31:53;;;;;;;9.75;5.97;;;13.50;99.90;;;;;;5084986;28;20039;-77
2022/07/18 03:34:19;;;;;;;13.52;6.57;;;13.60;99.90;;;;;;5067749;28;20089;-77
2022/07/18 03:36:45;;;;;;;11.32;6.18;;;13.70;99.90;;;;;;5086152;28;20036;-77
2022/07/18 03:39:12;;;;;;;8.30;5.18;;;13.70;99.90;;;;;;5067329;28;21213;-78
2022/07/18 03:41:39;;;;;;;12.48;6.15;;;13.70;99.90;;;;;;5080093;28;20051;-77
2022/07/18 03:44:05;;;;;;;10.27;5.85;;;13.70;99.90;;;;;;5053196;28;20368;-77
2022/07/18 03:46:31;;;;;;;12.77;6.05;;;13.70;99.90;;;;;;5086091;28;20486;-77
2022/07/18 03:48:57;;;;;;;13.55;6.15;;;13.70;99.90;;;;;;5051237;28;20174;-78
2022/07/18 03:51:23;;;;;;;11.23;6.07;;;13.70;99.90;;;;;;5068300;28;20115;-77
2022/07/18 03:53:48;;;;;;;11.60;6.55;;;13.80;99.90;;;;;;5067623;28;20391;-77
2022/07/18 03:56:14;;;;;;;10.20;6.30;;;13.80;99.90;;;;;;5068125;28;20044;-77
2022/07/18 03:58:40;;;;;;;11.68;6.05;;;13.80;99.90;;;;;;5052174;28;20067;-77
2022/07/18 04:01:06;;;;;;;11.80;6.53;;;13.80;99.90;;;;;;5068835;28;20032;-77
2022/07/18 04:03:32;;;;;;;11.85;6.68;;;13.90;99.90;;;;;;5065751;28;20116;-77
2022/07/18 04:05:57;;;;;;;12.88;6.35;;;13.80;99.90;;;;;;5066979;28;20067;-77
2022/07/18 04:08:23;;;;;;;15.05;6.80;;;13.90;99.90;;;;;;5066522;28;20129;-77
2022/07/18 04:10:49;;;;;;;12.43;7.45;;;14.00;99.90;;;;;;5068767;28;20036;-78
2022/07/18 04:13:14;;;;;;;12.98;6.85;;;14.10;99.90;;;;;;5068055;28;20134;-77
2022/07/18 04:15:40;;;;;;;11.50;6.15;;;14.20;99.90;;;;;;5068455;28;20040;-78
2022/07/18 04:18:06;;;;;;;13.18;6.43;;;14.20;99.90;;;;;;5070287;28;20032;-77
2022/07/18 04:20:33;;;;;;;15.60;7.18;;;14.30;99.90;;;;;;5065711;28;20040;-77
2022/07/18 04:23:02;;;;;;;12.38;6.75;;;14.40;99.90;;;;;;5066618;28;20047;-78
2022/07/18 04:25:33;;;;;;;11.70;6.63;;;14.40;99.90;;;;;;5068522;28;20039;-77
2022/07/18 04:27:59;;;;;;;11.82;6.57;;;14.40;99.90;;;;;;5068868;28;20047;-78
2022/07/18 04:30:26;;;;;;;10.50;6.20;;;14.40;99.90;;;;;;5062058;28;20043;-77
2022/07/18 04:32:52;;;;;;;10.70;6.15;;;14.40;99.90;;;;;;5066560;28;20044;-77
2022/07/18 04:35:18;;;;;;;13.93;6.00;;;14.50;99.90;;;;;;5066843;28;20131;-77
2022/07/18 04:37:44;;;;;;;12.10;6.65;;;14.60;99.90;;;;;;5067818;28;20240;-77
2022/07/18 04:40:10;;;;;;;14.10;6.00;;;14.80;99.90;;;;;;5066661;28;20040;-78
2022/07/18 04:42:36;;;;;;;10.63;6.30;;;14.80;99.90;;;;;;5082024;28;20044;-77
2022/07/18 04:45:03;;;;;;;12.63;6.55;;;14.90;99.90;;;;;;5067720;28;20417;-78
2022/07/18 04:47:28;;;;;;;10.45;5.72;;;15.00;99.90;;;;;;5052103;28;20036;-77
2022/07/18 04:49:54;;;;;;;15.48;5.75;;;15.10;99.90;;;;;;5067703;28;20044;-77
2022/07/18 04:52:21;;;;;;;12.23;6.90;;;15.20;99.90;;;;;;5062699;28;20043;-77
2022/07/18 04:54:47;;;;;;;11.98;6.15;;;15.30;99.90;;;;;;5051757;28;20046;-78
2022/07/18 04:57:14;;;;;;;11.98;5.63;;;15.30;99.90;;;;;;5084776;28;20402;-77
2022/07/18 04:59:41;;;;;;;12.02;6.13;;;15.40;99.90;;;;;;5080619;28;20041;-78
2022/07/18 05:02:08;;;;;;;12.80;6.28;;;15.50;99.90;;;;;;5086055;28;20117;-77
2022/07/18 05:04:34;;;;;;;11.40;5.60;;;15.60;99.90;;;;;;5066375;28;20036;-78
2022/07/18 05:07:00;;;;;;;11.07;5.35;;;15.70;99.90;;;;;;5053477;28;20044;-78
2022/07/18 05:09:26;;;;;;;15.13;5.25;;;15.70;99.90;;;;;;5075377;28;20590;-79
2022/07/18 05:11:52;;;;;;;9.85;5.13;;;15.80;99.90;;;;;;5063818;28;20036;-78
2022/07/18 05:14:18;;;;;;;12.55;5.38;;;15.80;99.90;;;;;;5096103;28;20042;-79
2022/07/18 05:16:43;;;;;;;10.77;4.93;;;15.90;99.90;;;;;;5058794;28;20534;-78
2022/07/18 05:19:09;;;;;;;9.57;5.05;;;15.90;99.90;;;;;;5071200;28;20051;-78
2022/07/18 05:21:34;;;;;;;9.18;5.00;;;16.20;99.90;;;;;;5069717;28;20036;-78
2022/07/18 05:24:00;;;;;;;8.73;4.53;;;16.60;99.90;;;;;;5071187;28;20044;-79
2022/07/18 05:26:25;;;;;;;9.55;4.90;;;17.10;99.90;;;;;;5069110;28;20067;-78
2022/07/18 05:28:51;;;;;;;11.35;4.30;;;17.30;99.90;;;;;;5066093;28;20044;-78
2022/07/18 05:31:18;;;;;;;13.02;4.75;;;17.50;99.90;;;;;;5053685;28;20072;-77
2022/07/18 05:33:43;;;;;;;8.63;3.78;;;17.60;99.90;;;;;;5088805;28;20727;-78
2022/07/18 05:36:10;;;;;;;7.93;3.95;;;17.70;99.90;;;;;;5071149;28;20090;-78
2022/07/18 05:38:36;;;;;;;8.95;3.83;;;18.00;99.90;;;;;;5069238;28;20108;-78
2022/07/18 05:41:01;;;;;;;8.07;3.67;;;18.40;99.90;;;;;;5086766;28;20064;-78
2022/07/18 05:43:27;;;;;;;8.93;3.53;;;18.70;99.90;;;;;;5058588;28;20032;-77
2022/07/18 05:45:52;;;;;;;7.07;3.38;;;19.00;99.90;;;;;;5075070;28;20044;-78
2022/07/18 05:48:18;;;;;;;9.70;3.63;;;19.50;99.90;;;;;;5073985;28;20044;-78
2022/07/18 05:50:44;;;;;;;7.38;3.30;;;19.80;99.90;;;;;;5075245;28;20105;-78
2022/07/18 05:53:11;;;;;;;11.80;4.00;;;20.40;99.90;;;;;;5074665;28;20398;-78
2022/07/18 05:55:37;;;;;;;7.50;3.55;;;20.60;99.90;;;;;;5063440;28;20462;-78
2022/07/18 05:58:03;;;;;;;7.20;3.50;;;20.70;99.90;;;;;;5047212;28;20571;-80
2022/07/18 06:00:29;;;;;;;9.40;3.40;;;20.50;99.90;;;;;;5074305;28;20040;-78
2022/07/18 06:02:55;;;;;;;8.77;3.17;;;20.30;99.90;;;;;;5072743;28;20047;-79
2022/07/18 06:05:21;;;;;;;10.32;3.67;;;20.10;99.90;;;;;;5070783;28;20100;-79
2022/07/18 06:07:47;;;;;;;6.15;3.38;;;19.90;99.90;;;;;;5075020;28;20051;-75
2022/07/18 06:10:12;;;;;;;8.23;3.78;;;19.80;99.90;;;;;;5082469;28;20417;-76
2022/07/18 06:12:38;;;;;;;9.73;3.80;;;19.80;99.90;;;;;;5072707;28;20055;-75
2022/07/18 06:15:05;;;;;;;5.30;3.03;;;19.80;99.90;;;;;;5058919;28;20131;-75
2022/07/18 06:17:30;;;;;;;7.93;3.63;;;19.70;99.90;;;;;;5043905;28;20161;-76
2022/07/18 06:19:56;;;;;;;9.98;3.78;;;19.70;99.90;;;;;;5068544;28;20403;-76
2022/07/18 06:22:25;;;;;;;6.53;3.65;;;19.70;99.90;;;;;;5071214;28;20039;-76
2022/07/18 06:24:51;;;;;;;15.27;4.68;;;19.80;99.90;;;;;;5074419;28;20051;-75
2022/07/18 06:27:17;;;;;;;10.18;4.25;;;19.90;99.90;;;;;;5065202;28;20041;-76
2022/07/18 06:29:43;;;;;;;6.72;3.78;;;19.90;99.90;;;;;;5074668;28;20162;-76
2022/07/18 06:32:09;;;;;;;7.50;3.75;;;20.00;99.90;;;;;;5074953;28;20040;-76
2022/07/18 06:34:34;;;;;;;8.73;4.25;;;20.00;99.90;;;;;;5074739;28;20036;-76
2022/07/18 06:37:00;;;;;;;7.03;4.25;;;20.10;99.90;;;;;;5073098;28;20069;-76
2022/07/18 06:39:25;;;;;;;9.13;3.95;;;20.20;99.90;;;;;;5073629;28;20040;-76
2022/07/18 06:41:51;;;;;;;5.40;3.28;;;20.30;99.90;;;;;;5069755;28;20483;-78
2022/07/18 06:44:17;;;;;;;12.35;4.03;;;20.50;99.90;;;;;;5092047;28;20036;-77
2022/07/18 06:46:42;;;;;;;8.38;3.95;;;20.60;99.90;;;;;;5088862;28;20044;-76
2022/07/18 06:49:09;;;;;;;5.57;3.17;;;20.70;99.90;;;;;;5084061;28;20036;-76
2022/07/18 06:51:34;;;;;;;5.47;3.55;;;20.90;99.90;;;;;;5053888;28;20055;-77
2022/07/18 06:54:00;;;;;;;7.05;4.20;;;21.20;99.90;;;;;;5054936;28;20414;-77
2022/07/18 06:56:26;;;;;;;5.70;3.47;;;21.50;99.90;;;;;;5053838;28;20472;-77
2022/07/18 06:58:52;;;;;;;6.80;3.88;;;21.80;99.90;;;;;;5054297;28;20082;-78
2022/07/18 07:01:19;;;;;;;6.40;3.58;;;22.40;99.90;;;;;;5053616;28;20044;-78
2022/07/18 07:03:46;;;;;;;7.22;3.58;;;22.90;99.90;;;;;;5054110;28;20368;-78
2022/07/18 07:06:12;;;;;;;6.75;3.72;;;23.20;99.90;;;;;;5055195;28;20055;-78
2022/07/18 07:08:38;;;;;;;7.28;3.47;;;23.40;99.90;;;;;;5055365;28;20519;-78
2022/07/18 07:11:03;;;;;;;5.18;2.78;;;23.60;99.90;;;;;;5052910;28;20115;-78
2022/07/18 07:13:29;;;;;;;7.53;3.45;;;23.70;99.90;;;;;;5053749;28;20044;-77
2022/07/18 07:15:55;;;;;;;8.10;2.88;;;23.60;99.90;;;;;;5072035;28;20051;-76
2022/07/18 07:18:20;;;;;;;7.85;3.25;;;23.60;99.90;;;;;;5072205;28;20087;-76
2022/07/18 07:20:46;;;;;;;5.90;2.30;;;23.80;99.90;;;;;;5053684;28;20051;-79
2022/07/18 07:23:12;;;;;;;6.25;2.60;;;24.00;99.90;;;;;;5054792;28;20032;-75
2022/07/18 07:25:39;;;;;;;5.03;2.50;;;24.40;99.10;;;;;;5054091;28;20093;-77
2022/07/18 07:28:05;;;;;;;5.72;2.53;;;24.80;97.80;;;;;;5053468;28;20568;-78
2022/07/18 07:30:32;;;;;;;7.38;2.35;;;25.00;96.70;;;;;;5036023;28;20115;-77
2022/07/18 07:32:58;;;;;;;4.13;2.72;;;25.40;95.30;;;;;;5053817;28;20059;-78
2022/07/18 07:35:24;;;;;;;3.67;2.50;;;25.60;94.60;;;;;;5053514;28;20511;-78
2022/07/18 07:37:53;;;;;;;4.38;2.53;;;25.70;93.60;;;;;;5053591;28;20127;-77
2022/07/18 07:40:19;;;;;;;4.82;2.45;;;25.90;92.30;;;;;;5053311;28;20492;-77
2022/07/18 07:42:45;;;;;;;4.43;2.05;;;26.10;91.90;;;;;;5053397;28;20062;-78
2022/07/18 07:45:13;;;;;;;4.10;1.98;;;26.20;90.80;;;;;;5053462;28;20123;-77
2022/07/18 07:47:39;;;;;;;4.63;2.53;;;26.40;88.50;;;;;;5053809;28;20040;-78
2022/07/18 07:50:07;;;;;;;3.28;1.77;;;26.60;88.60;;;;;;5053498;28;20055;-77
2022/07/18 07:52:32;;;;;;;6.65;2.28;;;26.80;86.10;;;;;;5053468;28;20067;-78
2022/07/18 07:54:58;;;;;;;9.18;2.13;;;27.00;87.30;;;;;;5037560;28;20499;-77
2022/07/18 07:57:23;;;;;;;4.75;2.00;;;27.10;84.50;;;;;;5071633;28;20040;-78
2022/07/18 07:59:49;;;;;;;5.85;1.98;;;27.00;84.00;;;;;;5037076;28;20044;-78
2022/07/18 08:02:16;;;;;;;2.92;1.80;;;26.80;80.80;;;;;;5053538;28;20052;-78
2022/07/18 08:04:42;;;;;;;4.07;1.88;;;26.70;79.50;;;;;;5053146;28;20045;-78
2022/07/18 08:07:08;;;;;;;5.40;2.17;;;26.70;81.40;;;;;;5054391;28;20419;-79
2022/07/18 08:09:34;;;;;;;6.18;1.95;;;26.90;77.80;;;;;;5057847;28;20048;-79
2022/07/18 08:11:59;;;;;;;2.97;1.83;;;27.30;74.70;;;;;;5074839;28;20439;-83
2022/07/18 08:14:25;;;;;;;3.90;1.92;;;27.70;73.20;;;;;;5056750;28;20045;-83
2022/07/18 08:16:51;;;;;;;5.00;2.10;;;27.80;70.80;;;;;;5039775;28;20032;-83
2022/07/18 08:19:16;;;;;;;5.38;2.63;;;27.70;68.60;;;;;;5055657;28;20093;-82
2022/07/18 08:21:43;;;;;;;5.22;3.05;;;27.60;67.30;;;;;;5039213;28;20085;-82
2022/07/18 08:24:09;;;;;;;5.60;1.88;;;27.60;67.00;;;;;;5053268;28;20112;-77
2022/07/18 08:26:38;;;;;;;4.82;1.80;;;27.60;67.40;;;;;;5053219;28;20135;-77
2022/07/18 08:29:05;;;;;;;5.47;1.75;;;27.80;65.60;;;;;;5053488;28;20052;-82
2022/07/18 08:31:31;;;;;;;3.75;1.63;;;28.30;64.50;;;;;;5074891;28;20075;-82
2022/07/18 08:33:56;;;;;;;4.85;1.90;;;28.70;62.80;;;;;;5057171;28;20076;-83
2022/07/18 08:36:22;;;;;;;3.08;1.70;;;28.80;61.20;;;;;;5056441;28;20040;-83
2022/07/18 08:38:48;;;;;;;4.57;1.65;;;29.00;61.70;;;;;;5055399;28;20055;-83
2022/07/18 08:41:16;;;;;;;3.97;1.70;;;29.10;59.50;;;;;;5040993;28;20044;-82
2022/07/18 08:43:44;;;;;;;3.30;1.52;;;29.20;58.20;;;;;;5057532;28;20085;-77
2022/07/18 08:46:11;;;;;;;4.65;1.40;;;29.00;57.70;;;;;;5075939;28;20443;-79
2022/07/18 08:48:39;;;;;;;2.58;1.30;;;28.80;58.30;;;;;;5058483;28;20078;-79
2022/07/18 08:51:05;;;;;;;2.88;1.30;;;28.80;57.60;;;;;;5058106;28;20106;-77
2022/07/18 08:53:32;;;;;;;7.50;1.55;;;28.90;57.40;;;;;;5056286;28;20105;-77
2022/07/18 08:55:58;;;;;;;4.50;1.55;;;28.90;57.10;;;;;;5057071;28;20115;-79
2022/07/18 08:58:23;;;;;;;2.78;1.50;;;29.00;56.30;;;;;;5056821;28;20119;-79
2022/07/18 09:00:49;;;;;;;3.58;1.52;;;29.10;56.90;;;;;;5039888;28;20086;-79
2022/07/18 09:03:16;;;;;;;2.95;1.63;;;29.30;56.20;;;;;;5056587;28;20093;-75
2022/07/18 09:05:42;;;;;;;4.70;1.58;;;29.60;55.70;;;;;;5059049;28;20053;-81
2022/07/18 09:08:22;;;;;;;5.10;1.38;;;29.70;55.00;;;;;;5060166;28;20047;-81
2022/07/18 09:10:52;;;;;;;4.13;1.73;;;29.80;53.40;;;;;;5041948;28;20090;-82
2022/07/18 09:13:19;;;;;;;;;;;29.80;53.50;;;;;;5058767;28;20095;-81
2022/07/18 09:15:58;;;;;;;3.80;1.33;;;29.80;53.60;;;;;;5041313;28;19926;-80
2022/07/18 09:18:37;;;;;;;5.22;1.48;;;29.90;55.60;;;;;;5057449;28;20079;-82
2022/07/18 09:21:07;;;;;;;5.70;1.38;;;29.80;55.40;;;;;;5058301;28;20079;-82
2022/07/18 09:23:34;;;;;;;5.10;1.55;;;29.90;53.90;;;;;;5057021;28;20074;-81
2022/07/18 09:26:00;;;;;;;4.28;1.40;;;30.20;53.80;;;;;;5056980;28;20048;-83
2022/07/18 09:28:44;;;;;;;7.68;1.55;;;30.30;53.70;;;;;;5057184;28;20499;-81
2022/07/18 09:31:25;;;;;;;5.53;1.33;;;30.40;50.60;;;;;;5042202;28;20574;-81
2022/07/18 09:33:55;;;;;;;3.00;1.20;;;30.70;50.10;;;;;;5041017;28;20518;-80
2022/07/18 09:36:21;;;;;;;3.75;1.67;;;30.70;50.80;;;;;;5059612;28;20032;-81
2022/07/18 09:38:47;;;;;;;4.97;1.15;;;30.70;50.70;;;;;;5042600;28;20047;-81
2022/07/18 09:41:13;;;;;;;3.70;1.10;;;30.60;49.70;;;;;;5059866;28;20044;-81
2022/07/18 09:43:41;;;;;;;2.85;0.80;;;30.70;49.10;;;;;;5043053;28;20040;-82
2022/07/18 09:46:07;;;;;;;6.53;1.60;;;30.80;47.90;;;;;;5076804;28;20040;-80
2022/07/18 09:48:34;;;;;;;2.90;1.10;;;30.70;48.60;;;;;;5057641;28;20051;-82
2022/07/18 09:50:59;;;;;;;3.55;1.30;;;30.80;48.60;;;;;;5058899;28;20445;-81
2022/07/18 09:53:32;;;;;;;3.88;1.17;;;30.90;48.70;;;;;;5076438;28;20045;-80
2022/07/18 09:56:00;;;;;;;4.07;1.30;;;31.00;48.60;;;;;;5058938;28;20020;-79
2022/07/18 09:58:28;;;;;;;3.03;1.20;;;31.00;48.30;;;;;;5078859;28;20045;-83
2022/07/18 10:00:56;;;;;;;4.72;1.40;;;31.20;48.50;;;;;;5076931;28;20083;-82
2022/07/18 10:03:23;;;;;;;3.03;1.10;;;31.30;47.90;;;;;;5076958;28;20059;-81
2022/07/18 10:05:50;;;;;;;5.82;1.38;;;31.40;46.90;;;;;;5039686;28;20514;-81
2022/07/18 10:08:19;;;;;;;4.22;1.40;;;31.30;46.60;;;;;;5055325;28;20051;-82
2022/07/18 10:10:46;;;;;;;3.97;1.10;;;31.30;46.80;;;;;;5038355;28;20041;-82
2022/07/18 10:13:12;;;;;;;2.38;1.67;;;31.30;46.80;;;;;;5041361;28;20040;-85
2022/07/18 10:15:41;;;;;;;2.72;1.40;;;31.40;48.30;;;;;;5058873;28;20048;-82
2022/07/18 10:18:12;;;;;;;2.42;1.33;;;31.60;47.50;;;;;;5060102;28;20036;-83
2022/07/18 10:20:44;;;;;;;4.68;1.80;;;31.70;46.70;;;;;;5054817;28;20043;-82
2022/07/18 10:23:17;;;;;;;4.05;1.92;;;31.60;45.90;;;;;;5055080;28;20518;-82
2022/07/18 10:25:43;;;;;;;4.00;1.50;;;31.60;45.70;;;;;;5055647;28;20040;-82
2022/07/18 10:28:12;;;;;;;4.45;1.25;;;31.60;45.50;;;;;;5054865;28;20032;-81
2022/07/18 10:30:49;;;;;;;3.20;1.50;;;31.60;43.90;;;;;;5055306;28;20068;-82
2022/07/18 10:33:36;;;;;;;3.40;1.48;;;31.50;43.90;;;;;;5074125;28;20477;-82
2022/07/18 10:36:08;;;;;;;3.85;1.35;;;31.40;45.40;;;;;;5073528;28;20102;-82
2022/07/18 10:38:34;;;;;;;5.30;1.48;;;31.30;44.50;;;;;;5055219;28;20141;-82
2022/07/18 10:41:05;;;;;;;3.88;1.55;;;31.40;44.50;;;;;;5055349;28;20483;-80
2022/07/18 10:43:36;;;;;;;3.45;2.08;;;31.40;44.90;;;;;;5054734;28;20044;-81
2022/07/18 10:46:04;;;;;;;2.28;1.42;;;31.60;45.20;;;;;;5054492;28;20041;-80
2022/07/18 10:48:32;;;;;;;2.60;1.33;;;31.70;43.70;;;;;;5037799;28;20036;-80
2022/07/18 10:51:12;;;;;;;4.10;1.88;;;31.80;45.00;;;;;;5037840;28;20090;-80
2022/07/18 10:53:59;;;;;;;2.85;1.58;;;31.70;44.70;;;;;;5055573;28;20040;-81
2022/07/18 10:56:27;;;;;;;3.95;1.50;;;31.70;44.10;;;;;;5054324;28;20044;-81
2022/07/18 10:58:56;;;;;;;5.10;1.45;;;31.50;42.70;;;;;;5038034;28;20474;-80
2022/07/18 11:01:23;;;;;;;3.22;1.60;;;31.40;42.30;;;;;;5037584;28;20123;-82
2022/07/18 11:03:49;;;;;;;3.30;1.52;;;31.40;43.70;;;;;;5037608;28;20051;-82
2022/07/18 11:06:16;;;;;;;3.83;1.73;;;31.30;44.00;;;;;;5037632;28;20048;-82
2022/07/18 11:08:42;;;;;;;4.47;1.90;;;31.30;43.60;;;;;;5054262;28;20052;-83
2022/07/18 11:11:12;;;;;;;5.63;1.67;;;31.30;43.10;;;;;;5054640;28;20040;-82
2022/07/18 11:13:40;;;;;;;3.90;2.22;;;31.40;42.80;;;;;;5055722;28;20110;-79
2022/07/18 11:16:12;;;;;;;3.90;1.75;;;31.40;42.30;;;;;;5054910;28;20066;-81
2022/07/18 11:18:44;;;;;;;3.53;1.63;;;31.50;41.00;;;;;;5055477;28;20055;-79
2022/07/18 11:21:25;;;;;;;4.10;2.10;;;31.60;41.60;;;;;;5056129;28;20124;-79
2022/07/18 11:23:51;;;;;;;;;;;31.60;43.20;;;;;;5056225;28;20458;-79
2022/07/18 11:26:19;;;;;;;3.67;1.98;;;31.30;42.10;;;;;;5073810;28;19916;-79
2022/07/18 11:28:48;;;;;;;4.10;2.05;;;31.30;42.70;;;;;;5073432;28;20040;-79
2022/07/18 11:31:15;;;;;;;3.90;1.80;;;31.30;42.40;;;;;;5054540;28;20048;-79
2022/07/18 11:33:46;;;;;;;4.30;2.10;;;31.30;42.10;;;;;;5073769;28;20067;-79
2022/07/18 11:36:16;;;;;;;4.03;2.13;;;31.40;40.70;;;;;;5054328;28;20039;-79
2022/07/18 11:38:50;;;;;;;6.88;2.03;;;31.40;41.00;;;;;;5073034;28;20048;-79
2022/07/18 11:41:16;;;;;;;5.28;2.10;;;31.40;42.30;;;;;;5054821;28;20049;-78
2022/07/18 11:43:46;;;;;;;5.90;2.70;;;31.40;42.40;;;;;;5073405;28;20040;-79
2022/07/18 11:46:14;;;;;;;5.95;2.28;;;31.30;41.90;;;;;;5073018;28;20044;-79
2022/07/18 11:48:41;;;;;;;4.82;2.30;;;31.30;41.70;;;;;;5072271;28;20045;-78
2022/07/18 11:51:19;;;;;;;3.35;2.20;;;31.30;41.40;;;;;;5072468;28;20047;-79
2022/07/18 11:53:50;;;;;;;3.78;2.35;;;31.40;41.40;;;;;;5055142;28;20092;-80
2022/07/18 11:56:16;;;;;;;2.85;2.15;;;31.70;43.30;;;;;;5055597;28;20045;-80
2022/07/18 11:58:44;;;;;;;2.95;2.13;;;31.80;42.60;;;;;;5054986;28;20072;-80
2022/07/18 12:01:10;;;;;;;3.05;2.00;;;32.00;41.70;;;;;;5073451;28;20033;-79
2022/07/18 12:03:39;;;;;;;6.30;2.42;;;32.20;40.80;;;;;;5073522;28;20056;-79
2022/07/18 12:06:21;;;;;;;5.30;2.30;;;32.30;39.70;;;;;;5072200;28;20360;-79
2022/07/18 12:08:49;;;;;;;6.53;2.50;;;32.40;38.00;;;;;;5038092;28;20041;-79
2022/07/18 12:11:24;;;;;;;4.85;2.13;;;32.40;39.70;;;;;;5037912;28;20044;-79
2022/07/18 12:13:59;;;;;;;4.07;2.20;;;32.70;40.20;;;;;;5055918;28;20086;-79
2022/07/18 12:16:31;;;;;;;4.57;1.85;;;32.80;40.40;;;;;;5075187;28;20445;-79
2022/07/18 12:19:08;;;;;;;4.60;2.28;;;33.00;40.30;;;;;;5059554;28;20487;-79
2022/07/18 12:21:45;;;;;;;4.55;2.10;;;33.20;39.90;;;;;;5057731;28;20131;-79
2022/07/18 12:24:19;;;;;;;3.50;2.08;;;33.20;38.30;;;;;;5061835;28;20444;-79
2022/07/18 12:26:45;;;;;;;2.78;2.28;;;33.30;38.60;;;;;;5066446;28;20048;-79
2022/07/18 12:29:11;;;;;;;3.22;2.17;;;33.30;38.80;;;;;;5079895;28;20188;-79
2022/07/18 12:31:43;;;;;;;2.90;1.80;;;33.40;39.10;;;;;;5063003;28;20606;-79
2022/07/18 12:34:15;;;;;;;4.93;2.92;;;33.40;39.10;;;;;;5079084;28;20044;-80
2022/07/18 12:37:10;;;;;;;4.43;2.40;;;33.20;38.70;;;;;;5063613;28;20036;-79
2022/07/18 12:39:36;;;;;;;2.28;1.73;;;33.10;38.60;;;;;;5058444;28;20052;-80
2022/07/18 12:42:02;;;;;;;4.50;1.75;;;33.10;39.10;;;;;;5078642;28;20090;-79
2022/07/18 12:44:28;;;;;;;3.42;1.92;;;33.20;38.60;;;;;;5100504;28;20461;-79
2022/07/18 12:46:55;;;;;;;5.22;2.10;;;33.40;39.90;;;;;;5082565;28;20052;-80
2022/07/18 12:49:21;;;;;;;3.33;1.98;;;33.50;39.40;;;;;;5100994;28;20055;-80